createdAt,value
2017-12-08T00:01:49.537Z,99.90
2017-12-08T00:04:16.992Z,99.90
2017-12-08T00:06:45.197Z,99.90
2017-12-08T00:09:12.635Z,99.90
2017-12-08T00:11:40.060Z,99.90
2017-12-08T00:14:07.513Z,99.90
2017-12-08T00:16:34.942Z,99.90
2017-12-08T00:19:02.382Z,99.90
2017-12-08T00:21:29.801Z,99.90
2017-12-08T00:23:57.993Z,99.90
2017-12-08T00:26:25.422Z,99.90
2017-12-08T00:28:52.840Z,99.90
2017-12-08T00:31:20.283Z,99.90
2017-12-08T00:33:47.703Z,99.90
2017-12-08T00:36:15.907Z,99.90
2017-12-08T00:38:43.346Z,99.90
2017-12-08T00:41:10.808Z,99.90
2017-12-08T00:43:38.253Z,99.90
2017-12-08T00:46:06.476Z,99.90
2017-12-08T00:48:33.898Z,99.90
2017-12-08T00:51:02.917Z,99.90
2017-12-08T00:53:30.356Z,99.90
2017-12-08T00:55:57.787Z,99.90
2017-12-08T00:58:25.209Z,99.90
2017-12-08T01:00:52.639Z,99.90
2017-12-08T01:03:20.066Z,99.90
2017-12-08T01:05:48.269Z,99.90
2017-12-08T01:08:15.757Z,99.90
2017-12-08T01:10:43.167Z,99.90
2017-12-08T01:13:10.600Z,99.90
2017-12-08T01:15:38.810Z,99.90
2017-12-08T01:18:06.268Z,99.90
2017-12-08T01:20:33.730Z,99.90
2017-12-08T01:23:01.214Z,99.90
2017-12-08T01:25:28.620Z,99.90
2017-12-08T01:27:56.060Z,99.90
2017-12-08T01:30:24.305Z,99.90
2017-12-08T01:32:51.753Z,99.90
2017-12-08T01:35:19.198Z,99.90
2017-12-08T01:37:46.629Z,99.90
2017-12-08T01:40:14.050Z,99.90
2017-12-08T01:42:41.476Z,99.90
2017-12-08T01:45:08.901Z,99.90
2017-12-08T01:47:36.344Z,99.90
2017-12-08T01:50:04.542Z,99.90
2017-12-08T01:52:31.961Z,99.90
2017-12-08T01:54:59.376Z,99.90
2017-12-08T01:57:26.815Z,99.90
2017-12-08T01:59:54.236Z,99.90
2017-12-08T02:02:22.444Z,99.90
2017-12-08T02:04:49.875Z,99.90
2017-12-08T02:07:18.087Z,99.90
2017-12-08T02:09:45.510Z,99.90
2017-12-08T02:12:13.698Z,99.90
2017-12-08T02:14:41.141Z,99.90
2017-12-08T02:17:09.360Z,99.90
2017-12-08T02:19:36.821Z,99.90
2017-12-08T02:22:04.291Z,99.90
2017-12-08T02:24:31.771Z,99.90
2017-12-08T02:26:59.187Z,99.90
2017-12-08T02:29:26.616Z,99.90
2017-12-08T02:31:54.033Z,99.90
2017-12-08T02:34:21.470Z,99.90
2017-12-08T02:36:48.880Z,99.90
2017-12-08T02:39:16.315Z,99.90
2017-12-08T02:41:44.525Z,99.90
2017-12-08T02:44:11.956Z,99.90
2017-12-08T02:46:39.380Z,99.90
2017-12-08T02:49:06.847Z,99.90
2017-12-08T02:51:34.299Z,99.90
2017-12-08T02:54:01.750Z,99.90
2017-12-08T02:56:29.176Z,99.90
2017-12-08T02:58:56.605Z,99.90
2017-12-08T03:01:24.082Z,99.90
2017-12-08T03:03:53.543Z,99.90
2017-12-08T03:06:20.977Z,99.90
2017-12-08T03:08:48.408Z,99.90
2017-12-08T03:11:15.839Z,99.90
2017-12-08T03:13:43.266Z,99.90
2017-12-08T03:16:10.695Z,99.90
2017-12-08T03:18:38.120Z,99.90
2017-12-08T03:21:05.552Z,99.90
2017-12-08T03:23:33.760Z,99.90
2017-12-08T03:26:01.176Z,99.90
2017-12-08T03:28:29.372Z,99.90
2017-12-08T03:30:56.798Z,99.90
2017-12-08T03:33:24.284Z,99.90
2017-12-08T03:35:52.472Z,99.90
2017-12-08T03:38:19.896Z,99.90
2017-12-08T03:40:47.329Z,99.90
2017-12-08T03:43:20.712Z,99.90
2017-12-08T03:45:48.149Z,99.90
2017-12-08T03:48:30.680Z,99.90
2017-12-08T03:50:58.119Z,99.90
2017-12-08T03:53:25.532Z,99.90
2017-12-08T03:55:53.727Z,99.90
2017-12-08T03:58:21.155Z,99.90
2017-12-08T04:00:48.595Z,99.90
2017-12-08T04:03:16.027Z,99.90
2017-12-08T04:05:54.476Z,99.90
2017-12-08T04:08:21.918Z,99.90
2017-12-08T04:10:49.347Z,99.90
2017-12-08T04:13:16.799Z,99.90
2017-12-08T04:15:45.158Z,99.90
2017-12-08T04:18:13.338Z,99.90
2017-12-08T04:20:40.833Z,99.90
2017-12-08T04:23:08.986Z,99.90
2017-12-08T04:25:37.193Z,99.90
2017-12-08T04:28:04.632Z,99.90
2017-12-08T04:30:33.056Z,99.90
2017-12-08T04:33:00.483Z,99.90
2017-12-08T04:35:27.914Z,99.90
2017-12-08T04:37:55.351Z,99.90
2017-12-08T04:40:22.767Z,99.90
2017-12-08T04:42:50.200Z,99.90
2017-12-08T04:45:17.628Z,99.90
2017-12-08T04:47:45.064Z,99.90
2017-12-08T04:50:13.257Z,99.90
2017-12-08T04:52:40.680Z,99.90
2017-12-08T04:55:08.116Z,99.90
2017-12-08T04:57:35.538Z,99.90
2017-12-08T05:00:02.980Z,99.90
2017-12-08T05:02:30.399Z,99.90
2017-12-08T05:04:57.836Z,99.90
2017-12-08T05:07:26.356Z,99.90
2017-12-08T05:09:54.552Z,99.90
2017-12-08T05:12:22.035Z,99.90
2017-12-08T05:14:49.473Z,99.90
2017-12-08T05:17:16.892Z,99.90
2017-12-08T05:19:44.323Z,99.90
2017-12-08T05:22:11.760Z,99.90
2017-12-08T05:24:39.193Z,99.90
2017-12-08T05:27:06.612Z,99.90
2017-12-08T05:29:34.050Z,99.90
2017-12-08T05:32:07.252Z,99.90
2017-12-08T05:34:34.703Z,99.90
2017-12-08T05:39:59.340Z,99.90
2017-12-08T05:42:26.763Z,99.90
2017-12-08T05:44:54.212Z,99.90
2017-12-08T05:47:22.152Z,99.90
2017-12-08T05:49:49.576Z,99.90
2017-12-08T05:52:17.004Z,99.90
2017-12-08T05:54:49.191Z,99.90
2017-12-08T05:57:16.629Z,99.90
2017-12-08T05:59:44.051Z,99.90
2017-12-08T06:02:11.489Z,99.90
2017-12-08T06:04:38.915Z,99.90
2017-12-08T06:07:06.355Z,99.90
2017-12-08T06:09:33.792Z,99.90
2017-12-08T06:12:01.238Z,99.90
2017-12-08T06:14:28.659Z,99.90
2017-12-08T06:17:04.581Z,99.90
2017-12-08T06:19:32.015Z,99.90
2017-12-08T06:21:59.452Z,99.90
2017-12-08T06:24:26.875Z,99.90
2017-12-08T06:26:54.300Z,99.90
2017-12-08T06:29:21.723Z,99.90
2017-12-08T06:31:49.160Z,99.90
2017-12-08T06:34:17.339Z,99.90
2017-12-08T06:36:45.602Z,99.90
2017-12-08T06:39:13.024Z,99.90
2017-12-08T06:41:40.464Z,99.90
2017-12-08T06:44:07.904Z,99.90
2017-12-08T06:46:35.424Z,99.90
2017-12-08T06:49:02.848Z,99.90
2017-12-08T06:51:30.271Z,99.90
2017-12-08T06:53:57.705Z,99.90
2017-12-08T06:56:25.127Z,99.90
2017-12-08T06:58:52.564Z,99.90
2017-12-08T07:01:19.988Z,99.90
2017-12-08T07:03:47.420Z,99.90
2017-12-08T07:06:14.846Z,99.90
2017-12-08T07:08:42.289Z,99.90
2017-12-08T07:11:09.721Z,99.90
2017-12-08T07:13:37.152Z,99.90
2017-12-08T07:16:04.611Z,99.90
2017-12-08T07:18:32.015Z,99.90
2017-12-08T07:20:59.452Z,99.90
2017-12-08T07:23:26.909Z,99.90
2017-12-08T07:25:55.089Z,99.90
2017-12-08T07:28:22.511Z,99.90
2017-12-08T07:30:49.936Z,99.90
2017-12-08T07:33:17.352Z,99.90
2017-12-08T07:35:44.779Z,99.90
2017-12-08T07:38:12.200Z,99.90
2017-12-08T07:40:39.780Z,99.90
2017-12-08T07:43:07.209Z,99.90
2017-12-08T07:45:34.644Z,99.90
2017-12-08T07:48:02.068Z,99.90
2017-12-08T07:50:29.496Z,99.90
2017-12-08T07:52:56.931Z,99.90
2017-12-08T07:55:24.365Z,99.90
2017-12-08T07:57:51.793Z,99.90
2017-12-08T08:00:19.290Z,99.90
2017-12-08T08:02:47.728Z,99.90
2017-12-08T08:05:15.158Z,99.90
2017-12-08T08:07:42.743Z,99.90
2017-12-08T08:10:10.159Z,99.90
2017-12-08T08:12:37.667Z,99.90
2017-12-08T08:15:05.093Z,99.90
2017-12-08T08:17:37.703Z,99.90
2017-12-08T08:20:06.178Z,99.90
2017-12-08T08:22:33.869Z,99.90
2017-12-08T08:25:01.284Z,99.90
2017-12-08T08:27:29.780Z,99.90
2017-12-08T08:29:57.990Z,99.90
2017-12-08T08:32:25.411Z,99.90
2017-12-08T08:34:52.832Z,99.90
2017-12-08T08:37:20.275Z,99.90
2017-12-08T08:39:47.711Z,99.80
2017-12-08T08:42:15.147Z,99.90
2017-12-08T08:44:43.350Z,99.90
2017-12-08T08:47:10.779Z,99.90
2017-12-08T08:49:38.976Z,99.50
2017-12-08T08:52:06.418Z,99.50
2017-12-08T08:54:34.605Z,99.90
2017-12-08T08:57:02.048Z,99.90
2017-12-08T08:59:30.225Z,99.90
2017-12-08T09:01:58.428Z,99.90
2017-12-08T09:04:25.854Z,99.90
2017-12-08T09:06:54.067Z,99.60
2017-12-08T09:09:21.487Z,99.60
2017-12-08T09:11:49.675Z,99.90
2017-12-08T09:14:17.108Z,99.90
2017-12-08T09:16:44.538Z,98.40
2017-12-08T09:19:11.967Z,99.40
2017-12-08T09:21:39.401Z,98.20
2017-12-08T09:24:07.598Z,99.30
2017-12-08T09:26:35.020Z,99.30
2017-12-08T09:29:03.203Z,99.90
2017-12-08T09:31:30.629Z,99.90
2017-12-08T09:33:58.058Z,99.50
2017-12-08T09:36:25.479Z,99.90
2017-12-08T09:38:53.000Z,99.90
2017-12-08T09:41:20.425Z,98.10
2017-12-08T09:43:47.852Z,98.20
2017-12-08T09:46:15.296Z,98.10
2017-12-08T09:48:47.987Z,99.10
2017-12-08T09:51:15.408Z,99.10
2017-12-08T09:53:42.856Z,97.20
2017-12-08T09:56:10.255Z,99.00
2017-12-08T09:58:37.680Z,97.70
2017-12-08T10:01:05.092Z,96.80
2017-12-08T10:03:32.535Z,96.20
2017-12-08T10:05:59.958Z,96.10
2017-12-08T10:08:27.380Z,97.40
2017-12-08T10:10:54.805Z,97.20
2017-12-08T10:13:22.233Z,98.40
2017-12-08T10:15:50.428Z,95.60
2017-12-08T10:18:17.852Z,95.60
2017-12-08T10:20:45.285Z,95.90
2017-12-08T10:23:12.712Z,95.40
2017-12-08T10:25:40.140Z,97.10
2017-12-08T10:28:08.347Z,96.40
2017-12-08T10:30:35.772Z,96.40
2017-12-08T10:33:03.983Z,96.60
2017-12-08T10:35:31.437Z,96.50
2017-12-08T10:37:58.828Z,97.30
2017-12-08T10:40:26.268Z,98.20
2017-12-08T10:42:53.688Z,96.80
2017-12-08T10:45:21.127Z,96.70
2017-12-08T10:47:59.403Z,96.50
2017-12-08T10:50:26.867Z,96.50
2017-12-08T10:52:56.279Z,96.30
2017-12-08T10:55:23.711Z,95.70
2017-12-08T10:57:51.123Z,95.60
2017-12-08T11:00:18.551Z,94.70
2017-12-08T11:02:45.982Z,96.00
2017-12-08T11:05:13.419Z,94.50
2017-12-08T11:07:40.833Z,94.90
2017-12-08T11:10:09.036Z,96.30
2017-12-08T11:12:36.455Z,96.30
2017-12-08T11:15:03.892Z,96.60
2017-12-08T11:17:31.320Z,96.80
2017-12-08T11:19:58.756Z,97.00
2017-12-08T11:22:26.176Z,96.60
2017-12-08T11:24:53.595Z,96.50
2017-12-08T11:27:21.060Z,97.40
2017-12-08T11:29:49.260Z,95.70
2017-12-08T11:32:16.684Z,95.70
2017-12-08T11:34:44.117Z,95.50
2017-12-08T11:37:11.540Z,95.60
2017-12-08T11:39:38.968Z,95.40
2017-12-08T11:42:06.398Z,95.50
2017-12-08T11:44:33.820Z,96.70
2017-12-08T11:47:01.247Z,95.20
2017-12-08T11:49:28.683Z,96.20
2017-12-08T11:51:56.132Z,96.00
2017-12-08T11:54:37.500Z,96.30
2017-12-08T11:57:04.928Z,94.90
2017-12-08T11:59:33.115Z,96.40
2017-12-08T12:02:01.308Z,96.20
2017-12-08T12:04:48.968Z,96.20
2017-12-08T12:07:16.393Z,95.20
2017-12-08T12:09:50.020Z,95.20
2017-12-08T12:12:17.455Z,95.20
2017-12-08T12:14:45.883Z,95.60
2017-12-08T12:17:13.316Z,96.30
2017-12-08T12:19:40.738Z,95.90
2017-12-08T12:25:08.855Z,96.10
2017-12-08T12:27:36.307Z,95.60
2017-12-08T12:30:04.737Z,96.10
2017-12-08T12:32:35.264Z,95.40
2017-12-08T12:35:06.100Z,95.60
2017-12-08T12:37:33.523Z,96.00
2017-12-08T12:40:00.952Z,95.30
2017-12-08T12:42:28.379Z,95.80
2017-12-08T12:44:56.568Z,95.50
2017-12-08T12:47:24.773Z,95.40
2017-12-08T12:49:52.217Z,95.40
2017-12-08T12:52:19.648Z,95.90
2017-12-08T12:54:47.847Z,96.40
2017-12-08T12:57:16.032Z,96.00
2017-12-08T12:59:43.464Z,96.00
2017-12-08T13:02:11.657Z,96.20
2017-12-08T13:04:39.081Z,96.20
2017-12-08T13:07:07.264Z,96.50
2017-12-08T13:09:35.455Z,95.60
2017-12-08T13:12:02.876Z,95.60
2017-12-08T13:14:30.299Z,95.90
2017-12-08T13:16:57.724Z,96.60
2017-12-08T13:19:28.939Z,96.40
2017-12-08T13:21:56.360Z,96.40
2017-12-08T13:24:23.801Z,95.90
2017-12-08T13:26:51.220Z,96.20
2017-12-08T13:29:31.908Z,95.60
2017-12-08T13:31:59.336Z,95.50
2017-12-08T13:34:26.790Z,95.40
2017-12-08T13:36:54.212Z,95.90
2017-12-08T13:39:21.640Z,95.50
2017-12-08T13:41:49.059Z,95.30
2017-12-08T13:44:16.487Z,95.70
2017-12-08T13:46:48.879Z,95.20
2017-12-08T13:49:16.308Z,96.00
2017-12-08T13:51:43.747Z,95.80
2017-12-08T13:54:23.001Z,96.10
2017-12-08T13:59:43.751Z,95.70
2017-12-08T14:02:11.172Z,96.70
2017-12-08T14:04:43.726Z,96.20
2017-12-08T14:07:11.916Z,96.30
2017-12-08T14:09:39.352Z,96.30
2017-12-08T14:12:06.773Z,95.80
2017-12-08T14:14:34.193Z,95.80
2017-12-08T14:17:01.644Z,95.30
2017-12-08T14:19:29.084Z,96.30
2017-12-08T14:21:56.516Z,95.40
2017-12-08T14:24:24.704Z,95.40
2017-12-08T14:26:52.142Z,95.40
2017-12-08T14:29:19.556Z,94.80
2017-12-08T14:31:47.008Z,94.30
2017-12-08T14:34:14.419Z,94.80
2017-12-08T14:36:42.627Z,95.00
2017-12-08T14:39:10.039Z,95.00
2017-12-08T14:41:40.672Z,95.40
2017-12-08T14:44:08.100Z,94.60
2017-12-08T14:46:35.535Z,95.20
2017-12-08T14:49:03.720Z,94.60
2017-12-08T14:51:31.149Z,94.60
2017-12-08T14:53:58.568Z,94.30
2017-12-08T14:56:26.041Z,94.30
2017-12-08T14:58:57.064Z,94.40
2017-12-08T15:01:24.495Z,94.50
2017-12-08T15:03:57.327Z,94.40
2017-12-08T15:06:25.520Z,94.20
2017-12-08T15:08:52.952Z,94.10
2017-12-08T15:11:20.539Z,93.80
2017-12-08T15:13:47.955Z,94.50
2017-12-08T15:16:15.388Z,93.70
2017-12-08T15:18:42.807Z,93.90
2017-12-08T15:21:10.255Z,93.70
2017-12-08T15:23:37.659Z,94.20
2017-12-08T15:26:05.085Z,94.10
2017-12-08T15:28:32.535Z,94.50
2017-12-08T15:30:59.949Z,94.40
2017-12-08T15:33:27.371Z,94.50
2017-12-08T15:35:54.811Z,94.70
2017-12-08T15:38:22.234Z,94.60
2017-12-08T15:40:50.424Z,94.40
2017-12-08T15:43:18.622Z,94.30
2017-12-08T15:45:53.891Z,94.30
2017-12-08T15:48:21.328Z,93.90
2017-12-08T15:50:48.751Z,93.90
2017-12-08T15:53:16.179Z,93.60
2017-12-08T15:55:43.603Z,93.90
2017-12-08T15:58:11.040Z,94.80
2017-12-08T16:00:38.459Z,94.30
2017-12-08T16:03:06.076Z,94.20
2017-12-08T16:05:33.515Z,95.00
2017-12-08T16:08:00.931Z,94.30
2017-12-08T16:10:29.124Z,95.00
2017-12-08T16:12:56.556Z,95.10
2017-12-08T16:15:24.043Z,94.50
2017-12-08T16:17:51.484Z,94.40
2017-12-08T16:20:20.770Z,95.00
2017-12-08T16:22:48.240Z,95.00
2017-12-08T16:25:16.433Z,94.80
2017-12-08T16:27:43.875Z,94.80
2017-12-08T16:30:12.071Z,95.10
2017-12-08T16:32:39.591Z,95.10
2017-12-08T16:35:07.016Z,95.00
2017-12-08T16:37:34.444Z,94.40
2017-12-08T16:40:01.869Z,94.50
2017-12-08T16:42:30.056Z,95.00
2017-12-08T16:44:58.270Z,94.70
2017-12-08T16:47:25.693Z,94.70
2017-12-08T16:49:53.920Z,94.60
2017-12-08T16:52:22.084Z,94.30
2017-12-08T16:54:49.528Z,94.30
2017-12-08T16:57:16.992Z,94.40
2017-12-08T16:59:44.424Z,94.00
2017-12-08T17:02:11.848Z,93.70
2017-12-08T17:04:39.272Z,93.20
2017-12-08T17:07:06.688Z,93.80
2017-12-08T17:09:34.127Z,93.00
2017-12-08T17:12:02.406Z,93.30
2017-12-08T17:14:29.824Z,93.30
2017-12-08T17:16:57.257Z,92.40
2017-12-08T17:19:24.671Z,92.70
2017-12-08T17:21:52.092Z,92.10
2017-12-08T17:24:19.526Z,92.40
2017-12-08T17:26:46.952Z,92.70
2017-12-08T17:29:15.245Z,92.10
2017-12-08T17:31:42.684Z,92.10
2017-12-08T17:34:10.876Z,92.60
2017-12-08T17:36:38.304Z,92.60
2017-12-08T17:39:05.720Z,92.50
2017-12-08T17:41:33.163Z,93.30
2017-12-08T17:44:00.673Z,93.10
2017-12-08T17:46:28.100Z,92.40
2017-12-08T17:48:55.519Z,92.60
2017-12-08T17:51:22.951Z,92.90
2017-12-08T17:53:51.143Z,92.30
2017-12-08T17:56:18.597Z,92.30
2017-12-08T17:58:49.292Z,92.60
2017-12-08T18:01:16.730Z,92.50
2017-12-08T18:03:44.156Z,93.00
2017-12-08T18:06:11.584Z,92.90
2017-12-08T18:08:39.784Z,93.10
2017-12-08T18:11:07.208Z,93.10
2017-12-08T18:13:35.399Z,93.10
2017-12-08T18:16:03.613Z,93.10
2017-12-08T18:18:31.056Z,93.10
2017-12-08T18:20:58.484Z,93.30
2017-12-08T18:23:26.676Z,92.90
2017-12-08T18:25:54.109Z,92.80
2017-12-08T18:28:22.304Z,93.60
2017-12-08T18:30:49.728Z,93.30
2017-12-08T18:33:17.155Z,94.10
2017-12-08T18:35:44.584Z,93.70
2017-12-08T18:38:12.014Z,93.60
2017-12-08T18:40:40.281Z,93.30
2017-12-08T18:43:07.732Z,93.20
2017-12-08T18:45:35.159Z,93.10
2017-12-08T18:48:02.603Z,93.30
2017-12-08T18:50:30.028Z,93.70
2017-12-08T18:52:57.459Z,93.50
2017-12-08T18:55:24.888Z,93.90
2017-12-08T18:57:52.377Z,94.20
2017-12-08T19:00:19.812Z,94.50
2017-12-08T19:02:47.297Z,94.30
2017-12-08T19:05:15.492Z,96.50
2017-12-08T19:07:42.932Z,96.50
2017-12-08T19:10:11.136Z,97.00
2017-12-08T19:12:38.575Z,97.00
2017-12-08T19:15:05.992Z,96.90
2017-12-08T19:17:33.424Z,97.20
2017-12-08T19:20:00.859Z,97.00
2017-12-08T19:22:28.280Z,97.00
2017-12-08T19:24:55.741Z,97.40
2017-12-08T19:27:23.173Z,97.20
2017-12-08T19:29:50.609Z,96.90
2017-12-08T19:32:18.043Z,96.60
2017-12-08T19:34:45.476Z,96.20
2017-12-08T19:37:12.896Z,96.00
2017-12-08T19:39:41.402Z,96.30
2017-12-08T19:42:08.903Z,96.50
2017-12-08T19:44:36.319Z,96.30
2017-12-08T19:47:04.538Z,96.60
2017-12-08T19:49:31.975Z,96.60
2017-12-08T19:51:59.403Z,96.70
2017-12-08T19:54:26.834Z,96.20
2017-12-08T19:56:54.257Z,96.20
2017-12-08T19:59:21.691Z,96.00
2017-12-08T20:01:49.112Z,96.20
2017-12-08T20:04:16.560Z,96.20
2017-12-08T20:06:44.047Z,96.20
2017-12-08T20:09:11.500Z,96.00
2017-12-08T20:11:38.920Z,95.70
2017-12-08T20:14:06.441Z,95.90
2017-12-08T20:16:34.667Z,95.80
2017-12-08T20:19:04.099Z,95.80
2017-12-08T20:21:31.551Z,95.70
2017-12-08T20:23:59.012Z,96.10
2017-12-08T20:26:30.717Z,95.50
2017-12-08T20:28:58.139Z,95.70
2017-12-08T20:31:25.582Z,95.80
2017-12-08T20:33:53.012Z,95.40
2017-12-08T20:36:20.503Z,95.90
2017-12-08T20:38:48.700Z,96.00
2017-12-08T20:41:16.128Z,96.00
2017-12-08T20:43:50.229Z,96.00
2017-12-08T20:46:18.732Z,95.80
2017-12-08T20:48:47.000Z,96.00
2017-12-08T20:51:14.429Z,96.00
2017-12-08T20:53:51.911Z,95.90
2017-12-08T20:56:20.775Z,95.90
2017-12-08T20:58:53.444Z,96.50
2017-12-08T21:01:20.876Z,96.60
2017-12-08T21:03:49.087Z,96.60
2017-12-08T21:06:16.513Z,96.60
2017-12-08T21:08:44.717Z,96.30
2017-12-08T21:11:12.191Z,96.10
2017-12-08T21:13:40.640Z,97.10
2017-12-08T21:16:08.070Z,97.40
2017-12-08T21:18:35.499Z,97.50
2017-12-08T21:21:02.968Z,97.40
2017-12-08T21:23:30.406Z,97.10
2017-12-08T21:25:57.843Z,97.10
2017-12-08T21:28:25.263Z,97.00
2017-12-08T21:30:52.710Z,96.80
2017-12-08T21:33:20.152Z,96.60
2017-12-08T21:35:47.596Z,96.60
2017-12-08T21:38:15.024Z,96.90
2017-12-08T21:40:42.459Z,96.60
2017-12-08T21:43:09.988Z,96.70
2017-12-08T21:45:37.416Z,96.70
2017-12-08T21:48:04.849Z,96.50
2017-12-08T21:50:32.347Z,96.90
2017-12-08T21:52:59.781Z,96.80
2017-12-08T21:55:28.226Z,97.00
2017-12-08T21:57:56.430Z,96.90
2017-12-08T22:00:23.859Z,96.90
2017-12-08T22:02:52.050Z,97.10
2017-12-08T22:05:19.479Z,97.10
2017-12-08T22:07:47.689Z,97.00
2017-12-08T22:10:18.589Z,97.00
2017-12-08T22:12:46.856Z,96.80
2017-12-08T22:15:14.333Z,96.90
2017-12-08T22:17:42.547Z,96.60
2017-12-08T22:20:09.969Z,96.60
2017-12-08T22:22:38.167Z,96.90
2017-12-08T22:25:06.373Z,97.20
2017-12-08T22:27:33.816Z,97.20
2017-12-08T22:30:01.240Z,96.80
2017-12-08T22:32:28.673Z,97.30
2017-12-08T22:34:56.110Z,97.00
2017-12-08T22:37:24.080Z,96.80
2017-12-08T22:39:51.511Z,97.10
2017-12-08T22:42:18.950Z,96.90
2017-12-08T22:44:46.371Z,97.20
2017-12-08T22:47:14.571Z,97.30
2017-12-08T22:49:42.000Z,97.30
2017-12-08T22:52:09.456Z,96.70
2017-12-08T22:54:36.908Z,96.60
2017-12-08T22:57:04.381Z,96.70
2017-12-08T22:59:32.580Z,96.50
2017-12-08T23:02:00.012Z,96.50
2017-12-08T23:04:27.451Z,96.10
2017-12-08T23:06:55.955Z,96.00
2017-12-08T23:09:24.155Z,95.60
2017-12-08T23:11:51.592Z,95.50
2017-12-08T23:14:19.788Z,95.00
2017-12-08T23:16:47.223Z,95.00
2017-12-08T23:19:15.415Z,95.30
2017-12-08T23:21:42.869Z,95.30
2017-12-08T23:24:10.305Z,94.60
2017-12-08T23:26:38.487Z,95.00
2017-12-08T23:29:05.910Z,95.00
2017-12-08T23:31:33.341Z,94.40
2017-12-08T23:34:00.772Z,94.70
2017-12-08T23:36:28.193Z,95.30
2017-12-08T23:38:55.628Z,95.10
2017-12-08T23:41:23.058Z,95.60
2017-12-08T23:43:50.498Z,95.00
2017-12-08T23:46:17.923Z,95.10
2017-12-08T23:48:45.351Z,95.20
2017-12-08T23:51:12.797Z,94.90
2017-12-08T23:53:40.227Z,95.40
2017-12-08T23:56:07.652Z,95.10
2017-12-08T23:58:35.096Z,95.50
